sensor_id;sensor_type;location;lat;lon;timestamp;P1;durP1;ratioP1;P2;durP2;ratioP2
8312;SDS011;4194;43.408;24.626;2023-08-06T00:00:08;2.33;;;2.07;;
8312;SDS011;4194;43.408;24.626;2023-08-06T00:02:34;2.00;;;1.70;;
8312;SDS011;4194;43.408;24.626;2023-08-06T00:05:00;2.63;;;2.33;;
8312;SDS011;4194;43.408;24.626;2023-08-06T00:07:26;2.37;;;1.97;;
8312;SDS011;4194;43.408;24.626;2023-08-06T00:09:52;5.20;;;2.10;;
8312;SDS011;4194;43.408;24.626;2023-08-06T00:12:18;3.40;;;2.30;;
8312;SDS011;4194;43.408;24.626;2023-08-06T00:14:43;2.87;;;2.30;;
8312;SDS011;4194;43.408;24.626;2023-08-06T00:17:10;2.20;;;2.00;;
8312;SDS011;4194;43.408;24.626;2023-08-06T00:19:35;2.40;;;2.20;;
8312;SDS011;4194;43.408;24.626;2023-08-06T00:22:01;2.17;;;2.03;;
8312;SDS011;4194;43.408;24.626;2023-08-06T00:24:27;3.50;;;2.10;;
8312;SDS011;4194;43.408;24.626;2023-08-06T00:26:53;2.37;;;2.17;;
8312;SDS011;4194;43.408;24.626;2023-08-06T00:29:19;2.27;;;2.00;;
8312;SDS011;4194;43.408;24.626;2023-08-06T00:31:44;2.07;;;1.83;;
8312;SDS011;4194;43.408;24.626;2023-08-06T00:34:10;2.87;;;2.07;;
8312;SDS011;4194;43.408;24.626;2023-08-06T00:36:36;3.10;;;1.70;;
8312;SDS011;4194;43.408;24.626;2023-08-06T00:39:01;2.20;;;2.00;;
8312;SDS011;4194;43.408;24.626;2023-08-06T00:41:27;4.07;;;2.23;;
8312;SDS011;4194;43.408;24.626;2023-08-06T00:43:53;1.97;;;1.80;;
8312;SDS011;4194;43.408;24.626;2023-08-06T00:46:19;3.33;;;2.10;;
8312;SDS011;4194;43.408;24.626;2023-08-06T00:48:45;2.13;;;1.60;;
8312;SDS011;4194;43.408;24.626;2023-08-06T00:51:12;2.53;;;1.80;;
8312;SDS011;4194;43.408;24.626;2023-08-06T00:53:38;2.33;;;1.90;;
8312;SDS011;4194;43.408;24.626;2023-08-06T00:56:04;2.63;;;2.00;;
8312;SDS011;4194;43.408;24.626;2023-08-06T00:58:31;2.20;;;2.00;;
8312;SDS011;4194;43.408;24.626;2023-08-06T01:00:57;2.17;;;1.97;;
8312;SDS011;4194;43.408;24.626;2023-08-06T01:03:23;3.23;;;2.23;;
8312;SDS011;4194;43.408;24.626;2023-08-06T01:05:49;6.70;;;1.53;;
8312;SDS011;4194;43.408;24.626;2023-08-06T01:13:45;3.30;;;1.70;;
8312;SDS011;4194;43.408;24.626;2023-08-06T01:16:18;2.27;;;1.50;;
8312;SDS011;4194;43.408;24.626;2023-08-06T01:18:46;2.43;;;1.87;;
8312;SDS011;4194;43.408;24.626;2023-08-06T01:21:14;3.63;;;1.83;;
8312;SDS011;4194;43.408;24.626;2023-08-06T01:23:44;3.37;;;1.90;;
8312;SDS011;4194;43.408;24.626;2023-08-06T01:31:26;3.60;;;1.70;;
8312;SDS011;4194;43.408;24.626;2023-08-06T01:34:02;2.43;;;1.60;;
8312;SDS011;4194;43.408;24.626;2023-08-06T01:36:31;2.10;;;1.63;;
8312;SDS011;4194;43.408;24.626;2023-08-06T01:38:57;4.67;;;1.40;;
8312;SDS011;4194;43.408;24.626;2023-08-06T01:41:23;2.60;;;1.70;;
8312;SDS011;4194;43.408;24.626;2023-08-06T01:43:48;3.07;;;1.63;;
8312;SDS011;4194;43.408;24.626;2023-08-06T01:46:14;1.97;;;1.50;;
8312;SDS011;4194;43.408;24.626;2023-08-06T01:48:40;1.80;;;1.40;;
8312;SDS011;4194;43.408;24.626;2023-08-06T01:51:06;1.50;;;1.40;;
8312;SDS011;4194;43.408;24.626;2023-08-06T01:53:32;2.23;;;1.50;;
8312;SDS011;4194;43.408;24.626;2023-08-06T01:55:58;4.10;;;1.80;;
8312;SDS011;4194;43.408;24.626;2023-08-06T01:58:24;2.60;;;1.60;;
8312;SDS011;4194;43.408;24.626;2023-08-06T02:00:50;3.83;;;1.53;;
8312;SDS011;4194;43.408;24.626;2023-08-06T02:03:15;1.57;;;1.23;;
8312;SDS011;4194;43.408;24.626;2023-08-06T02:05:41;1.60;;;1.50;;
8312;SDS011;4194;43.408;24.626;2023-08-06T02:08:07;1.93;;;1.37;;
8312;SDS011;4194;43.408;24.626;2023-08-06T02:10:33;3.47;;;1.60;;
8312;SDS011;4194;43.408;24.626;2023-08-06T02:12:59;2.73;;;1.40;;
8312;SDS011;4194;43.408;24.626;2023-08-06T02:15:24;2.27;;;1.87;;
8312;SDS011;4194;43.408;24.626;2023-08-06T02:17:50;2.47;;;1.80;;
8312;SDS011;4194;43.408;24.626;2023-08-06T02:20:16;1.87;;;1.77;;
8312;SDS011;4194;43.408;24.626;2023-08-06T02:22:41;2.27;;;1.50;;
8312;SDS011;4194;43.408;24.626;2023-08-06T02:25:07;3.70;;;1.57;;
8312;SDS011;4194;43.408;24.626;2023-08-06T02:27:33;1.80;;;1.70;;
8312;SDS011;4194;43.408;24.626;2023-08-06T02:29:59;1.77;;;1.67;;
8312;SDS011;4194;43.408;24.626;2023-08-06T02:32:24;2.27;;;1.63;;
8312;SDS011;4194;43.408;24.626;2023-08-06T02:34:50;1.87;;;1.37;;
8312;SDS011;4194;43.408;24.626;2023-08-06T02:37:16;3.33;;;1.93;;
8312;SDS011;4194;43.408;24.626;2023-08-06T02:39:42;3.33;;;1.57;;
8312;SDS011;4194;43.408;24.626;2023-08-06T02:42:08;2.77;;;1.60;;
8312;SDS011;4194;43.408;24.626;2023-08-06T02:44:34;3.73;;;1.53;;
8312;SDS011;4194;43.408;24.626;2023-08-06T02:47:00;3.00;;;1.80;;
8312;SDS011;4194;43.408;24.626;2023-08-06T02:49:26;2.30;;;1.67;;
8312;SDS011;4194;43.408;24.626;2023-08-06T02:51:52;2.53;;;1.40;;
8312;SDS011;4194;43.408;24.626;2023-08-06T02:54:17;1.77;;;1.67;;
8312;SDS011;4194;43.408;24.626;2023-08-06T02:56:44;2.23;;;1.70;;
8312;SDS011;4194;43.408;24.626;2023-08-06T02:59:11;1.60;;;1.50;;
8312;SDS011;4194;43.408;24.626;2023-08-06T03:01:37;1.50;;;1.40;;
8312;SDS011;4194;43.408;24.626;2023-08-06T03:04:03;2.10;;;1.60;;
8312;SDS011;4194;43.408;24.626;2023-08-06T03:06:29;1.77;;;1.57;;
8312;SDS011;4194;43.408;24.626;2023-08-06T03:08:55;2.00;;;1.60;;
8312;SDS011;4194;43.408;24.626;2023-08-06T03:11:21;2.57;;;1.97;;
8312;SDS011;4194;43.408;24.626;2023-08-06T03:13:49;1.47;;;1.33;;
8312;SDS011;4194;43.408;24.626;2023-08-06T03:16:15;5.13;;;1.80;;
8312;SDS011;4194;43.408;24.626;2023-08-06T03:18:40;2.53;;;1.77;;
8312;SDS011;4194;43.408;24.626;2023-08-06T03:21:06;2.40;;;1.73;;
8312;SDS011;4194;43.408;24.626;2023-08-06T03:23:32;1.57;;;1.47;;
8312;SDS011;4194;43.408;24.626;2023-08-06T03:26:04;1.70;;;1.60;;
8312;SDS011;4194;43.408;24.626;2023-08-06T03:28:30;4.40;;;1.70;;
8312;SDS011;4194;43.408;24.626;2023-08-06T03:30:59;2.13;;;1.70;;
8312;SDS011;4194;43.408;24.626;2023-08-06T03:33:26;2.50;;;1.53;;
8312;SDS011;4194;43.408;24.626;2023-08-06T03:35:52;2.13;;;1.60;;
8312;SDS011;4194;43.408;24.626;2023-08-06T03:38:17;2.00;;;1.43;;
8312;SDS011;4194;43.408;24.626;2023-08-06T03:40:43;2.77;;;1.60;;
8312;SDS011;4194;43.408;24.626;2023-08-06T03:43:09;5.70;;;1.50;;
8312;SDS011;4194;43.408;24.626;2023-08-06T03:45:34;2.50;;;1.87;;
8312;SDS011;4194;43.408;24.626;2023-08-06T03:48:00;2.23;;;1.40;;
8312;SDS011;4194;43.408;24.626;2023-08-06T03:50:26;2.10;;;1.47;;
8312;SDS011;4194;43.408;24.626;2023-08-06T03:52:51;2.03;;;1.47;;
8312;SDS011;4194;43.408;24.626;2023-08-06T03:55:17;1.80;;;1.50;;
8312;SDS011;4194;43.408;24.626;2023-08-06T03:57:42;3.03;;;1.43;;
8312;SDS011;4194;43.408;24.626;2023-08-06T04:00:08;2.33;;;1.53;;
8312;SDS011;4194;43.408;24.626;2023-08-06T04:02:34;1.80;;;1.67;;
8312;SDS011;4194;43.408;24.626;2023-08-06T04:07:51;1.83;;;1.60;;
8312;SDS011;4194;43.408;24.626;2023-08-06T04:10:16;1.73;;;1.63;;
8312;SDS011;4194;43.408;24.626;2023-08-06T04:12:42;2.30;;;1.83;;
8312;SDS011;4194;43.408;24.626;2023-08-06T04:15:08;3.27;;;1.70;;
8312;SDS011;4194;43.408;24.626;2023-08-06T04:17:33;2.57;;;2.00;;
8312;SDS011;4194;43.408;24.626;2023-08-06T04:19:59;1.90;;;1.67;;
8312;SDS011;4194;43.408;24.626;2023-08-06T04:22:25;2.20;;;2.00;;
8312;SDS011;4194;43.408;24.626;2023-08-06T04:24:51;1.90;;;1.70;;
8312;SDS011;4194;43.408;24.626;2023-08-06T04:27:17;1.93;;;1.63;;
8312;SDS011;4194;43.408;24.626;2023-08-06T04:29:44;2.50;;;1.60;;
8312;SDS011;4194;43.408;24.626;2023-08-06T04:32:10;2.47;;;1.90;;
8312;SDS011;4194;43.408;24.626;2023-08-06T04:34:36;2.03;;;1.60;;
8312;SDS011;4194;43.408;24.626;2023-08-06T04:37:03;3.40;;;1.93;;
8312;SDS011;4194;43.408;24.626;2023-08-06T04:39:29;1.57;;;1.47;;
8312;SDS011;4194;43.408;24.626;2023-08-06T04:41:55;3.73;;;1.80;;
8312;SDS011;4194;43.408;24.626;2023-08-06T04:44:22;2.80;;;2.00;;
8312;SDS011;4194;43.408;24.626;2023-08-06T04:46:48;2.07;;;1.70;;
8312;SDS011;4194;43.408;24.626;2023-08-06T04:49:14;3.47;;;1.80;;
8312;SDS011;4194;43.408;24.626;2023-08-06T04:51:39;2.77;;;1.90;;
8312;SDS011;4194;43.408;24.626;2023-08-06T04:54:05;2.53;;;2.00;;
8312;SDS011;4194;43.408;24.626;2023-08-06T04:56:31;1.93;;;1.73;;
8312;SDS011;4194;43.408;24.626;2023-08-06T04:58:57;2.67;;;1.90;;
8312;SDS011;4194;43.408;24.626;2023-08-06T05:01:24;2.67;;;2.13;;
8312;SDS011;4194;43.408;24.626;2023-08-06T05:03:50;2.10;;;1.90;;
8312;SDS011;4194;43.408;24.626;2023-08-06T05:06:15;3.47;;;1.90;;
8312;SDS011;4194;43.408;24.626;2023-08-06T05:08:41;4.33;;;2.23;;
8312;SDS011;4194;43.408;24.626;2023-08-06T05:11:07;3.37;;;1.70;;
8312;SDS011;4194;43.408;24.626;2023-08-06T05:13:32;2.27;;;2.07;;
8312;SDS011;4194;43.408;24.626;2023-08-06T05:15:58;4.37;;;2.53;;
8312;SDS011;4194;43.408;24.626;2023-08-06T05:18:24;3.00;;;2.13;;
8312;SDS011;4194;43.408;24.626;2023-08-06T05:20:49;2.33;;;2.00;;
8312;SDS011;4194;43.408;24.626;2023-08-06T05:23:15;3.53;;;1.93;;
8312;SDS011;4194;43.408;24.626;2023-08-06T05:25:41;2.40;;;2.20;;
8312;SDS011;4194;43.408;24.626;2023-08-06T05:28:07;3.83;;;1.93;;
8312;SDS011;4194;43.408;24.626;2023-08-06T05:30:33;3.57;;;1.60;;
8312;SDS011;4194;43.408;24.626;2023-08-06T05:32:59;2.30;;;1.83;;
8312;SDS011;4194;43.408;24.626;2023-08-06T05:35:25;3.07;;;1.73;;
8312;SDS011;4194;43.408;24.626;2023-08-06T05:37:50;2.13;;;1.93;;
8312;SDS011;4194;43.408;24.626;2023-08-06T05:40:16;2.83;;;1.90;;
8312;SDS011;4194;43.408;24.626;2023-08-06T05:42:42;4.77;;;2.07;;
8312;SDS011;4194;43.408;24.626;2023-08-06T05:45:08;2.00;;;1.80;;
8312;SDS011;4194;43.408;24.626;2023-08-06T05:47:34;1.80;;;1.70;;
8312;SDS011;4194;43.408;24.626;2023-08-06T05:50:00;2.30;;;2.10;;
8312;SDS011;4194;43.408;24.626;2023-08-06T05:52:26;2.37;;;1.80;;
8312;SDS011;4194;43.408;24.626;2023-08-06T05:54:51;2.23;;;1.87;;
8312;SDS011;4194;43.408;24.626;2023-08-06T05:57:17;2.53;;;1.97;;
8312;SDS011;4194;43.408;24.626;2023-08-06T05:59:43;5.63;;;2.00;;
8312;SDS011;4194;43.408;24.626;2023-08-06T06:02:09;3.03;;;2.30;;
8312;SDS011;4194;43.408;24.626;2023-08-06T06:04:34;1.93;;;1.80;;
8312;SDS011;4194;43.408;24.626;2023-08-06T06:07:00;1.97;;;1.70;;
8312;SDS011;4194;43.408;24.626;2023-08-06T06:09:26;1.90;;;1.60;;
8312;SDS011;4194;43.408;24.626;2023-08-06T06:11:52;2.30;;;1.93;;
8312;SDS011;4194;43.408;24.626;2023-08-06T06:14:18;2.33;;;1.67;;
8312;SDS011;4194;43.408;24.626;2023-08-06T06:16:44;3.53;;;2.07;;
8312;SDS011;4194;43.408;24.626;2023-08-06T06:19:11;2.90;;;1.90;;
8312;SDS011;4194;43.408;24.626;2023-08-06T06:21:37;1.90;;;1.73;;
8312;SDS011;4194;43.408;24.626;2023-08-06T06:24:03;3.53;;;1.73;;
8312;SDS011;4194;43.408;24.626;2023-08-06T06:26:30;2.97;;;1.83;;
8312;SDS011;4194;43.408;24.626;2023-08-06T06:28:56;1.83;;;1.63;;
8312;SDS011;4194;43.408;24.626;2023-08-06T06:31:22;1.70;;;1.60;;
8312;SDS011;4194;43.408;24.626;2023-08-06T06:33:48;2.57;;;2.07;;
8312;SDS011;4194;43.408;24.626;2023-08-06T06:36:14;2.60;;;2.30;;
8312;SDS011;4194;43.408;24.626;2023-08-06T06:38:39;2.63;;;1.80;;
8312;SDS011;4194;43.408;24.626;2023-08-06T06:41:05;2.10;;;1.90;;
8312;SDS011;4194;43.408;24.626;2023-08-06T06:43:31;1.80;;;1.70;;
8312;SDS011;4194;43.408;24.626;2023-08-06T06:45:57;2.47;;;1.80;;
8312;SDS011;4194;43.408;24.626;2023-08-06T06:48:28;2.40;;;2.07;;
8312;SDS011;4194;43.408;24.626;2023-08-06T06:50:54;4.83;;;2.00;;
8312;SDS011;4194;43.408;24.626;2023-08-06T06:53:21;3.50;;;2.10;;
8312;SDS011;4194;43.408;24.626;2023-08-06T06:55:52;3.37;;;2.03;;
8312;SDS011;4194;43.408;24.626;2023-08-06T06:58:18;2.63;;;2.00;;
8312;SDS011;4194;43.408;24.626;2023-08-06T07:00:45;3.47;;;2.77;;
8312;SDS011;4194;43.408;24.626;2023-08-06T07:03:11;5.87;;;2.63;;
8312;SDS011;4194;43.408;24.626;2023-08-06T07:05:37;4.50;;;2.60;;
8312;SDS011;4194;43.408;24.626;2023-08-06T07:08:02;15.63;;;3.73;;
8312;SDS011;4194;43.408;24.626;2023-08-06T07:10:28;9.27;;;3.67;;
8312;SDS011;4194;43.408;24.626;2023-08-06T07:12:54;8.50;;;3.63;;
8312;SDS011;4194;43.408;24.626;2023-08-06T07:15:20;7.43;;;4.00;;
8312;SDS011;4194;43.408;24.626;2023-08-06T07:17:45;6.10;;;4.17;;
8312;SDS011;4194;43.408;24.626;2023-08-06T07:20:11;9.53;;;4.50;;
8312;SDS011;4194;43.408;24.626;2023-08-06T07:22:37;9.67;;;4.30;;
8312;SDS011;4194;43.408;24.626;2023-08-06T07:25:02;8.13;;;4.13;;
8312;SDS011;4194;43.408;24.626;2023-08-06T07:27:28;6.83;;;4.60;;
8312;SDS011;4194;43.408;24.626;2023-08-06T07:29:54;7.87;;;4.17;;
8312;SDS011;4194;43.408;24.626;2023-08-06T07:32:20;5.30;;;3.73;;
8312;SDS011;4194;43.408;24.626;2023-08-06T07:34:45;5.57;;;3.07;;
8312;SDS011;4194;43.408;24.626;2023-08-06T07:37:11;5.37;;;3.73;;
8312;SDS011;4194;43.408;24.626;2023-08-06T07:39:38;3.93;;;2.63;;
8312;SDS011;4194;43.408;24.626;2023-08-06T07:42:04;5.07;;;3.30;;
8312;SDS011;4194;43.408;24.626;2023-08-06T07:44:32;4.30;;;3.00;;
8312;SDS011;4194;43.408;24.626;2023-08-06T07:46:57;5.37;;;3.70;;
8312;SDS011;4194;43.408;24.626;2023-08-06T07:49:23;5.03;;;3.57;;
8312;SDS011;4194;43.408;24.626;2023-08-06T07:51:49;10.63;;;3.80;;
8312;SDS011;4194;43.408;24.626;2023-08-06T07:54:16;8.30;;;4.10;;
8312;SDS011;4194;43.408;24.626;2023-08-06T07:56:42;9.53;;;4.20;;
8312;SDS011;4194;43.408;24.626;2023-08-06T07:59:08;3.83;;;2.83;;
8312;SDS011;4194;43.408;24.626;2023-08-06T08:01:34;5.43;;;3.20;;
8312;SDS011;4194;43.408;24.626;2023-08-06T08:04:00;3.70;;;2.90;;
8312;SDS011;4194;43.408;24.626;2023-08-06T08:06:25;4.50;;;3.60;;
8312;SDS011;4194;43.408;24.626;2023-08-06T08:08:51;3.87;;;3.10;;
8312;SDS011;4194;43.408;24.626;2023-08-06T08:11:17;6.50;;;3.13;;
8312;SDS011;4194;43.408;24.626;2023-08-06T08:13:43;4.73;;;3.60;;
8312;SDS011;4194;43.408;24.626;2023-08-06T08:16:09;6.27;;;3.70;;
8312;SDS011;4194;43.408;24.626;2023-08-06T08:18:35;4.70;;;3.43;;
8312;SDS011;4194;43.408;24.626;2023-08-06T08:21:01;5.67;;;3.33;;
8312;SDS011;4194;43.408;24.626;2023-08-06T08:23:26;4.80;;;3.70;;
8312;SDS011;4194;43.408;24.626;2023-08-06T08:25:52;6.43;;;4.30;;
8312;SDS011;4194;43.408;24.626;2023-08-06T08:28:18;3.53;;;3.23;;
8312;SDS011;4194;43.408;24.626;2023-08-06T08:30:44;3.90;;;3.00;;
8312;SDS011;4194;43.408;24.626;2023-08-06T08:33:09;6.00;;;3.93;;
8312;SDS011;4194;43.408;24.626;2023-08-06T08:35:36;8.37;;;3.50;;
8312;SDS011;4194;43.408;24.626;2023-08-06T08:38:02;3.80;;;3.47;;
8312;SDS011;4194;43.408;24.626;2023-08-06T08:40:29;5.50;;;3.10;;
8312;SDS011;4194;43.408;24.626;2023-08-06T08:43:01;4.43;;;3.33;;
8312;SDS011;4194;43.408;24.626;2023-08-06T08:45:28;3.70;;;3.20;;
8312;SDS011;4194;43.408;24.626;2023-08-06T08:47:54;6.37;;;3.90;;
8312;SDS011;4194;43.408;24.626;2023-08-06T08:50:20;3.40;;;3.10;;
8312;SDS011;4194;43.408;24.626;2023-08-06T08:52:47;6.97;;;4.17;;
8312;SDS011;4194;43.408;24.626;2023-08-06T08:55:15;3.97;;;3.20;;
8312;SDS011;4194;43.408;24.626;2023-08-06T08:57:41;3.97;;;3.00;;
8312;SDS011;4194;43.408;24.626;2023-08-06T09:00:08;4.47;;;3.47;;
8312;SDS011;4194;43.408;24.626;2023-08-06T09:02:34;4.70;;;3.50;;
8312;SDS011;4194;43.408;24.626;2023-08-06T09:05:02;7.77;;;4.10;;
8312;SDS011;4194;43.408;24.626;2023-08-06T09:07:35;7.80;;;4.47;;
8312;SDS011;4194;43.408;24.626;2023-08-06T09:10:04;6.90;;;3.90;;
8312;SDS011;4194;43.408;24.626;2023-08-06T09:12:34;4.97;;;3.87;;
8312;SDS011;4194;43.408;24.626;2023-08-06T09:14:59;3.60;;;3.30;;
8312;SDS011;4194;43.408;24.626;2023-08-06T09:17:28;5.83;;;4.10;;
8312;SDS011;4194;43.408;24.626;2023-08-06T09:19:54;5.77;;;4.23;;
8312;SDS011;4194;43.408;24.626;2023-08-06T09:22:20;6.30;;;4.17;;
8312;SDS011;4194;43.408;24.626;2023-08-06T09:24:45;5.30;;;4.20;;
8312;SDS011;4194;43.408;24.626;2023-08-06T09:27:12;6.27;;;4.93;;
8312;SDS011;4194;43.408;24.626;2023-08-06T09:29:45;5.70;;;5.07;;
8312;SDS011;4194;43.408;24.626;2023-08-06T09:32:12;6.30;;;4.70;;
8312;SDS011;4194;43.408;24.626;2023-08-06T09:34:45;8.87;;;4.40;;
8312;SDS011;4194;43.408;24.626;2023-08-06T09:37:11;5.83;;;4.60;;
8312;SDS011;4194;43.408;24.626;2023-08-06T09:39:38;8.07;;;5.00;;
8312;SDS011;4194;43.408;24.626;2023-08-06T09:42:05;6.90;;;5.30;;
8312;SDS011;4194;43.408;24.626;2023-08-06T09:44:31;5.70;;;4.83;;
8312;SDS011;4194;43.408;24.626;2023-08-06T09:46:58;6.60;;;5.10;;
8312;SDS011;4194;43.408;24.626;2023-08-06T09:49:39;6.77;;;4.80;;
8312;SDS011;4194;43.408;24.626;2023-08-06T09:52:11;6.87;;;5.53;;
8312;SDS011;4194;43.408;24.626;2023-08-06T09:54:38;7.33;;;5.57;;
8312;SDS011;4194;43.408;24.626;2023-08-06T09:57:04;8.73;;;5.23;;
8312;SDS011;4194;43.408;24.626;2023-08-06T09:59:30;5.03;;;4.53;;
8312;SDS011;4194;43.408;24.626;2023-08-06T10:01:58;5.37;;;4.50;;
8312;SDS011;4194;43.408;24.626;2023-08-06T10:04:24;7.73;;;5.77;;
8312;SDS011;4194;43.408;24.626;2023-08-06T10:06:51;5.63;;;5.00;;
8312;SDS011;4194;43.408;24.626;2023-08-06T10:09:17;5.97;;;4.70;;
8312;SDS011;4194;43.408;24.626;2023-08-06T10:11:50;7.87;;;5.40;;
8312;SDS011;4194;43.408;24.626;2023-08-06T10:14:30;7.57;;;5.67;;
8312;SDS011;4194;43.408;24.626;2023-08-06T10:16:59;7.77;;;4.83;;
8312;SDS011;4194;43.408;24.626;2023-08-06T10:19:26;6.03;;;4.97;;
8312;SDS011;4194;43.408;24.626;2023-08-06T10:24:52;5.57;;;4.20;;
8312;SDS011;4194;43.408;24.626;2023-08-06T10:27:29;5.37;;;4.67;;
8312;SDS011;4194;43.408;24.626;2023-08-06T10:30:25;4.43;;;4.00;;
8312;SDS011;4194;43.408;24.626;2023-08-06T10:32:59;4.80;;;3.77;;
8312;SDS011;4194;43.408;24.626;2023-08-06T10:37:57;4.03;;;3.40;;
8312;SDS011;4194;43.408;24.626;2023-08-06T10:41:04;7.30;;;3.40;;
8312;SDS011;4194;43.408;24.626;2023-08-06T10:45:55;3.40;;;3.10;;
8312;SDS011;4194;43.408;24.626;2023-08-06T10:48:28;3.57;;;3.10;;
8312;SDS011;4194;43.408;24.626;2023-08-06T10:50:56;4.00;;;2.93;;
8312;SDS011;4194;43.408;24.626;2023-08-06T10:53:22;3.43;;;2.90;;
8312;SDS011;4194;43.408;24.626;2023-08-06T10:55:48;3.90;;;2.37;;
8312;SDS011;4194;43.408;24.626;2023-08-06T10:58:15;4.60;;;2.60;;
8312;SDS011;4194;43.408;24.626;2023-08-06T11:00:41;2.90;;;2.63;;
8312;SDS011;4194;43.408;24.626;2023-08-06T11:03:07;3.53;;;2.47;;
8312;SDS011;4194;43.408;24.626;2023-08-06T11:05:34;3.43;;;2.67;;
8312;SDS011;4194;43.408;24.626;2023-08-06T11:08:00;2.60;;;2.40;;
8312;SDS011;4194;43.408;24.626;2023-08-06T11:10:26;3.27;;;2.97;;
8312;SDS011;4194;43.408;24.626;2023-08-06T11:12:52;3.27;;;2.87;;
8312;SDS011;4194;43.408;24.626;2023-08-06T11:15:20;4.70;;;2.37;;
8312;SDS011;4194;43.408;24.626;2023-08-06T11:17:46;4.20;;;2.30;;
8312;SDS011;4194;43.408;24.626;2023-08-06T11:20:12;5.40;;;2.70;;
8312;SDS011;4194;43.408;24.626;2023-08-06T11:22:38;4.47;;;1.70;;
8312;SDS011;4194;43.408;24.626;2023-08-06T11:25:04;2.60;;;1.70;;
8312;SDS011;4194;43.408;24.626;2023-08-06T11:27:31;2.40;;;1.73;;
8312;SDS011;4194;43.408;24.626;2023-08-06T11:29:57;4.43;;;1.60;;
8312;SDS011;4194;43.408;24.626;2023-08-06T11:32:22;2.10;;;1.47;;
8312;SDS011;4194;43.408;24.626;2023-08-06T11:34:48;1.87;;;1.60;;
8312;SDS011;4194;43.408;24.626;2023-08-06T11:37:15;3.43;;;1.90;;
8312;SDS011;4194;43.408;24.626;2023-08-06T11:39:45;2.17;;;1.97;;
8312;SDS011;4194;43.408;24.626;2023-08-06T11:42:15;1.93;;;1.70;;
8312;SDS011;4194;43.408;24.626;2023-08-06T11:44:41;3.57;;;1.83;;
8312;SDS011;4194;43.408;24.626;2023-08-06T11:47:11;3.30;;;1.80;;
8312;SDS011;4194;43.408;24.626;2023-08-06T11:52:19;2.03;;;1.93;;
8312;SDS011;4194;43.408;24.626;2023-08-06T11:55:07;3.40;;;1.83;;
8312;SDS011;4194;43.408;24.626;2023-08-06T11:57:35;2.37;;;1.80;;
8312;SDS011;4194;43.408;24.626;2023-08-06T12:00:04;2.23;;;2.10;;
8312;SDS011;4194;43.408;24.626;2023-08-06T12:02:32;2.97;;;2.65;;
8312;SDS011;4194;43.408;24.626;2023-08-06T12:07:47;5.50;;;3.03;;
8312;SDS011;4194;43.408;24.626;2023-08-06T12:10:14;3.42;;;2.92;;
8312;SDS011;4194;43.408;24.626;2023-08-06T12:12:40;3.65;;;2.58;;
8312;SDS011;4194;43.408;24.626;2023-08-06T12:15:06;6.25;;;2.75;;
8312;SDS011;4194;43.408;24.626;2023-08-06T12:17:33;2.58;;;2.38;;
8312;SDS011;4194;43.408;24.626;2023-08-06T12:19:59;2.53;;;2.33;;
8312;SDS011;4194;43.408;24.626;2023-08-06T12:22:25;4.72;;;1.95;;
8312;SDS011;4194;43.408;24.626;2023-08-06T12:24:51;3.17;;;1.95;;
8312;SDS011;4194;43.408;24.626;2023-08-06T12:27:17;3.70;;;1.85;;
8312;SDS011;4194;43.408;24.626;2023-08-06T12:29:43;3.30;;;1.90;;
8312;SDS011;4194;43.408;24.626;2023-08-06T12:32:10;1.70;;;1.60;;
8312;SDS011;4194;43.408;24.626;2023-08-06T12:34:38;2.28;;;1.60;;
8312;SDS011;4194;43.408;24.626;2023-08-06T12:37:04;2.05;;;1.60;;
8312;SDS011;4194;43.408;24.626;2023-08-06T12:39:30;2.45;;;1.80;;
8312;SDS011;4194;43.408;24.626;2023-08-06T12:41:57;2.10;;;1.70;;
8312;SDS011;4194;43.408;24.626;2023-08-06T12:44:23;4.13;;;2.00;;
8312;SDS011;4194;43.408;24.626;2023-08-06T12:46:50;1.92;;;1.83;;
8312;SDS011;4194;43.408;24.626;2023-08-06T12:49:17;1.73;;;1.63;;
8312;SDS011;4194;43.408;24.626;2023-08-06T12:51:43;3.13;;;2.00;;
8312;SDS011;4194;43.408;24.626;2023-08-06T12:54:08;1.70;;;1.60;;
8312;SDS011;4194;43.408;24.626;2023-08-06T12:56:34;3.58;;;1.50;;
8312;SDS011;4194;43.408;24.626;2023-08-06T12:59:00;1.90;;;1.67;;
8312;SDS011;4194;43.408;24.626;2023-08-06T13:01:26;1.75;;;1.50;;
8312;SDS011;4194;43.408;24.626;2023-08-06T13:03:51;4.18;;;1.83;;
8312;SDS011;4194;43.408;24.626;2023-08-06T13:06:17;2.20;;;1.80;;
8312;SDS011;4194;43.408;24.626;2023-08-06T13:08:42;2.53;;;1.75;;
8312;SDS011;4194;43.408;24.626;2023-08-06T13:11:09;2.25;;;1.63;;
8312;SDS011;4194;43.408;24.626;2023-08-06T13:13:34;2.08;;;1.88;;
8312;SDS011;4194;43.408;24.626;2023-08-06T13:16:00;2.55;;;1.75;;
8312;SDS011;4194;43.408;24.626;2023-08-06T13:18:26;2.95;;;1.95;;
8312;SDS011;4194;43.408;24.626;2023-08-06T13:20:55;4.60;;;1.67;;
8312;SDS011;4194;43.408;24.626;2023-08-06T13:23:20;2.75;;;1.73;;
8312;SDS011;4194;43.408;24.626;2023-08-06T13:25:46;1.98;;;1.63;;
8312;SDS011;4194;43.408;24.626;2023-08-06T13:28:13;1.90;;;1.70;;
8312;SDS011;4194;43.408;24.626;2023-08-06T13:30:39;1.45;;;1.35;;
8312;SDS011;4194;43.408;24.626;2023-08-06T13:33:11;2.03;;;1.90;;
8312;SDS011;4194;43.408;24.626;2023-08-06T13:35:38;2.85;;;1.60;;
8312;SDS011;4194;43.408;24.626;2023-08-06T13:38:04;1.58;;;1.48;;
8312;SDS011;4194;43.408;24.626;2023-08-06T13:40:32;3.63;;;2.30;;
8312;SDS011;4194;43.408;24.626;2023-08-06T13:42:59;2.60;;;1.80;;
8312;SDS011;4194;43.408;24.626;2023-08-06T13:45:25;2.55;;;1.80;;
8312;SDS011;4194;43.408;24.626;2023-08-06T13:47:50;1.88;;;1.70;;
8312;SDS011;4194;43.408;24.626;2023-08-06T13:50:16;2.67;;;1.90;;
8312;SDS011;4194;43.408;24.626;2023-08-06T13:52:42;1.73;;;1.63;;
8312;SDS011;4194;43.408;24.626;2023-08-06T13:55:08;2.63;;;1.90;;
8312;SDS011;4194;43.408;24.626;2023-08-06T13:57:34;2.10;;;1.83;;
8312;SDS011;4194;43.408;24.626;2023-08-06T14:00:00;1.83;;;1.73;;
8312;SDS011;4194;43.408;24.626;2023-08-06T14:02:27;3.88;;;1.83;;
8312;SDS011;4194;43.408;24.626;2023-08-06T14:04:53;1.88;;;1.77;;
8312;SDS011;4194;43.408;24.626;2023-08-06T14:07:19;2.67;;;2.13;;
8312;SDS011;4194;43.408;24.626;2023-08-06T14:09:45;2.70;;;1.95;;
8312;SDS011;4194;43.408;24.626;2023-08-06T14:12:12;2.75;;;1.60;;
8312;SDS011;4194;43.408;24.626;2023-08-06T14:14:38;1.50;;;1.40;;
8312;SDS011;4194;43.408;24.626;2023-08-06T14:17:04;3.20;;;1.38;;
8312;SDS011;4194;43.408;24.626;2023-08-06T14:19:30;1.80;;;1.70;;
8312;SDS011;4194;43.408;24.626;2023-08-06T14:21:56;2.08;;;1.98;;
8312;SDS011;4194;43.408;24.626;2023-08-06T14:24:21;2.83;;;2.10;;
8312;SDS011;4194;43.408;24.626;2023-08-06T14:26:47;2.00;;;1.90;;
8312;SDS011;4194;43.408;24.626;2023-08-06T14:29:13;2.57;;;1.83;;
8312;SDS011;4194;43.408;24.626;2023-08-06T14:31:39;2.23;;;2.03;;
8312;SDS011;4194;43.408;24.626;2023-08-06T14:34:05;2.10;;;1.90;;
8312;SDS011;4194;43.408;24.626;2023-08-06T14:36:31;2.75;;;1.60;;
8312;SDS011;4194;43.408;24.626;2023-08-06T14:38:57;2.97;;;2.03;;
8312;SDS011;4194;43.408;24.626;2023-08-06T14:41:23;2.22;;;1.92;;
8312;SDS011;4194;43.408;24.626;2023-08-06T14:43:49;1.95;;;1.67;;
8312;SDS011;4194;43.408;24.626;2023-08-06T14:46:15;2.05;;;1.95;;
8312;SDS011;4194;43.408;24.626;2023-08-06T14:48:41;2.50;;;2.17;;
8312;SDS011;4194;43.408;24.626;2023-08-06T14:51:07;3.20;;;2.30;;
8312;SDS011;4194;43.408;24.626;2023-08-06T14:53:34;2.42;;;2.15;;
8312;SDS011;4194;43.408;24.626;2023-08-06T14:55:59;2.97;;;2.53;;
8312;SDS011;4194;43.408;24.626;2023-08-06T14:58:26;2.65;;;2.30;;
8312;SDS011;4194;43.408;24.626;2023-08-06T15:00:52;2.65;;;2.13;;
8312;SDS011;4194;43.408;24.626;2023-08-06T15:03:17;2.58;;;2.38;;
8312;SDS011;4194;43.408;24.626;2023-08-06T15:05:43;3.70;;;2.22;;
8312;SDS011;4194;43.408;24.626;2023-08-06T15:08:12;2.05;;;1.95;;
8312;SDS011;4194;43.408;24.626;2023-08-06T15:10:37;2.15;;;1.95;;
8312;SDS011;4194;43.408;24.626;2023-08-06T15:13:03;2.17;;;2.08;;
8312;SDS011;4194;43.408;24.626;2023-08-06T15:15:29;2.72;;;2.53;;
8312;SDS011;4194;43.408;24.626;2023-08-06T15:17:55;2.33;;;2.20;;
8312;SDS011;4194;43.408;24.626;2023-08-06T15:20:22;2.63;;;2.15;;
8312;SDS011;4194;43.408;24.626;2023-08-06T15:22:48;4.68;;;2.33;;